Aérodrome :
LOGIN :

S'inscrire | Disclaimer

   EN    FR    IT 

 










Légende :    VFR   VFR Marginal   IFR   IFR Intensif   IFR Très Intensif
Visi : 
Plafond : 
>= 8 km
>= 3000ft
5 à 8 km
1000 à 3000 ft
1500m à 5 km
500 à 1000 ft
800 à 1500m
200 à 500 ft
< 800m
< 200 ft
Symboles :   Orages  Brouillard  Fortes neiges  Fortes précipitations  Vent > 20 kt
SIGMETs :   Divers  Orages  Givrage  Turbulence  Onde Orograph.  Cendres Volcan.






- Altitude de l'aérodrome : 1742 ft
- Code IATA : SOF


LBSF - Sofia Int.

DERNIER METAR :
  • 071000Z VRB05KT 9999 SCT050 23/09 Q1010 NOSIG

METARs EXPIRÉS :
  • 070930Z 15004KT 100V210 9999 SCT050 23/10 Q1010 NOSIG
  • 070900Z VRB02KT 9999 SCT050 22/09 Q1010 NOSIG
  • 070830Z VRB02KT CAVOK 21/09 Q1010 NOSIG
  • 070800Z 26003KT 200V330 CAVOK 21/10 Q1010 NOSIG
  • 070730Z 29004KT 250V360 CAVOK 20/11 Q1010 NOSIG

TAF TAF LBSF
Valide du 07 à 06h jusqu'au 08 à 06h UTC


070500Z 0706/0806 VRB04KT 9999 SCT050 BKN070
BECMG 0708/0710 10010KT
TEMPO 0710/0717 VRB16G26KT 5000 TSRA SCT030CB BKN040
BECMG 0719/0721 VRB04KT



MET'MAP, la Météo Aéronautique d'un coup d'oeil ! - Copyright ORBIFLY Décembre 2007 - Disclaimer

ORBIFLY MET'MAP TEAM :

Programmation & Développement : Alexandra Zaïnal
Sur une idée originale de : Baudouin d'Aumeries
Assistance à la programmation : Marc-Olivier Méhu
Soutien technique & logistique : Manuel Goepfert

Contact : metmap@orbifly.com




SOURCES & CREDITS :

   NOAA